sensor_id;sensor_type;location;lat;lon;timestamp;pressure;altitude;pressure_sealevel;temperature;humidity
72640;BME280;60683;51.730;8.762;2024-01-15T00:02:05;98827.75;;;-0.06;100.00
72640;BME280;60683;51.730;8.762;2024-01-15T00:04:54;98816.97;;;-0.05;100.00
72640;BME280;60683;51.730;8.762;2024-01-15T00:07:43;98818.59;;;-0.04;100.00
72640;BME280;60683;51.730;8.762;2024-01-15T00:10:33;98815.78;;;-0.02;100.00
72640;BME280;60683;51.730;8.762;2024-01-15T00:13:20;98827.97;;;-0.01;100.00
72640;BME280;60683;51.730;8.762;2024-01-15T00:16:08;98805.19;;;-0.02;100.00
72640;BME280;60683;51.730;8.762;2024-01-15T00:19:04;98808.22;;;0.02;100.00
72640;BME280;60683;51.730;8.762;2024-01-15T00:21:58;98805.81;;;0.00;100.00
72640;BME280;60683;51.730;8.762;2024-01-15T00:24:47;98801.94;;;0.03;100.00
72640;BME280;60683;51.730;8.762;2024-01-15T00:27:36;98792.38;;;0.02;100.00
72640;BME280;60683;51.730;8.762;2024-01-15T00:30:25;98786.09;;;0.03;100.00
72640;BME280;60683;51.730;8.762;2024-01-15T00:33:15;98795.03;;;0.02;100.00
72640;BME280;60683;51.730;8.762;2024-01-15T00:36:07;98790.16;;;-0.02;100.00
72640;BME280;60683;51.730;8.762;2024-01-15T00:39:03;98782.25;;;-0.02;100.00
72640;BME280;60683;51.730;8.762;2024-01-15T00:41:55;98779.41;;;0.00;100.00
72640;BME280;60683;51.730;8.762;2024-01-15T00:44:45;98774.69;;;0.02;100.00
72640;BME280;60683;51.730;8.762;2024-01-15T00:47:33;98779.16;;;0.02;100.00
72640;BME280;60683;51.730;8.762;2024-01-15T00:50:24;98786.50;;;-0.01;100.00
72640;BME280;60683;51.730;8.762;2024-01-15T00:53:17;98773.06;;;0.01;100.00
72640;BME280;60683;51.730;8.762;2024-01-15T00:56:05;98782.63;;;0.02;100.00
72640;BME280;60683;51.730;8.762;2024-01-15T00:58:53;98771.88;;;0.04;100.00
72640;BME280;60683;51.730;8.762;2024-01-15T01:01:42;98782.22;;;0.05;100.00
72640;BME280;60683;51.730;8.762;2024-01-15T01:04:30;98786.91;;;0.10;100.00
72640;BME280;60683;51.730;8.762;2024-01-15T01:07:20;98782.84;;;0.07;100.00
72640;BME280;60683;51.730;8.762;2024-01-15T01:10:10;98794.03;;;0.09;100.00
72640;BME280;60683;51.730;8.762;2024-01-15T01:12:59;98804.59;;;0.09;100.00
72640;BME280;60683;51.730;8.762;2024-01-15T01:15:50;98795.28;;;0.13;100.00
72640;BME280;60683;51.730;8.762;2024-01-15T01:18:37;98801.16;;;0.15;100.00
72640;BME280;60683;51.730;8.762;2024-01-15T01:21:27;98799.16;;;0.17;100.00
72640;BME280;60683;51.730;8.762;2024-01-15T01:24:18;98799.97;;;0.18;100.00
72640;BME280;60683;51.730;8.762;2024-01-15T01:27:20;98793.03;;;0.17;100.00
72640;BME280;60683;51.730;8.762;2024-01-15T01:30:08;98809.31;;;0.20;100.00
72640;BME280;60683;51.730;8.762;2024-01-15T01:32:57;98806.06;;;0.18;100.00
72640;BME280;60683;51.730;8.762;2024-01-15T01:35:47;98798.75;;;0.20;100.00
72640;BME280;60683;51.730;8.762;2024-01-15T01:38:35;98797.94;;;0.20;100.00
72640;BME280;60683;51.730;8.762;2024-01-15T01:41:21;98793.66;;;0.19;100.00
72640;BME280;60683;51.730;8.762;2024-01-15T01:44:17;98799.53;;;0.14;100.00
72640;BME280;60683;51.730;8.762;2024-01-15T01:47:07;98788.56;;;0.17;100.00
72640;BME280;60683;51.730;8.762;2024-01-15T01:49:55;98790.59;;;0.15;100.00
72640;BME280;60683;51.730;8.762;2024-01-15T01:52:46;98794.25;;;0.14;100.00
72640;BME280;60683;51.730;8.762;2024-01-15T01:55:38;98792.44;;;0.15;100.00
72640;BME280;60683;51.730;8.762;2024-01-15T01:58:23;98791.81;;;0.13;100.00
72640;BME280;60683;51.730;8.762;2024-01-15T02:01:16;98780.22;;;0.14;100.00
72640;BME280;60683;51.730;8.762;2024-01-15T02:04:04;98786.31;;;0.14;100.00
72640;BME280;60683;51.730;8.762;2024-01-15T02:06:52;98779.63;;;0.12;100.00
72640;BME280;60683;51.730;8.762;2024-01-15T02:09:41;98780.63;;;0.11;100.00
72640;BME280;60683;51.730;8.762;2024-01-15T02:12:30;98770.88;;;0.11;100.00
72640;BME280;60683;51.730;8.762;2024-01-15T02:15:18;98784.09;;;0.11;100.00
72640;BME280;60683;51.730;8.762;2024-01-15T02:18:13;98769.25;;;0.10;100.00
72640;BME280;60683;51.730;8.762;2024-01-15T02:21:00;98766.78;;;0.09;100.00
72640;BME280;60683;51.730;8.762;2024-01-15T02:23:55;98763.75;;;0.12;100.00
72640;BME280;60683;51.730;8.762;2024-01-15T02:26:45;98760.09;;;0.13;100.00
72640;BME280;60683;51.730;8.762;2024-01-15T02:29:36;98766.59;;;0.10;100.00
72640;BME280;60683;51.730;8.762;2024-01-15T02:32:24;98760.31;;;0.11;100.00
72640;BME280;60683;51.730;8.762;2024-01-15T02:35:12;98765.78;;;0.10;100.00
72640;BME280;60683;51.730;8.762;2024-01-15T02:38:00;98761.31;;;0.10;100.00
72640;BME280;60683;51.730;8.762;2024-01-15T02:41:04;98750.75;;;0.10;100.00
72640;BME280;60683;51.730;8.762;2024-01-15T02:43:54;98757.25;;;0.14;100.00
72640;BME280;60683;51.730;8.762;2024-01-15T02:46:40;98759.91;;;0.14;100.00
72640;BME280;60683;51.730;8.762;2024-01-15T02:49:27;98770.50;;;0.21;100.00
72640;BME280;60683;51.730;8.762;2024-01-15T02:52:19;98759.13;;;0.27;100.00
72640;BME280;60683;51.730;8.762;2024-01-15T02:55:10;98772.94;;;0.29;100.00
72640;BME280;60683;51.730;8.762;2024-01-15T02:58:14;98767.88;;;0.27;100.00
72640;BME280;60683;51.730;8.762;2024-01-15T03:01:01;98777.22;;;0.30;100.00
72640;BME280;60683;51.730;8.762;2024-01-15T03:03:55;98771.75;;;0.31;100.00
72640;BME280;60683;51.730;8.762;2024-01-15T03:06:43;98777.22;;;0.30;100.00
72640;BME280;60683;51.730;8.762;2024-01-15T03:09:33;98778.84;;;0.31;100.00
72640;BME280;60683;51.730;8.762;2024-01-15T03:12:23;98766.06;;;0.35;100.00
72640;BME280;60683;51.730;8.762;2024-01-15T03:15:19;98768.06;;;0.32;100.00
72640;BME280;60683;51.730;8.762;2024-01-15T03:18:06;98771.13;;;0.29;100.00
72640;BME280;60683;51.730;8.762;2024-01-15T03:20:54;98768.47;;;0.29;100.00
72640;BME280;60683;51.730;8.762;2024-01-15T03:23:41;98766.84;;;0.28;100.00
72640;BME280;60683;51.730;8.762;2024-01-15T03:26:30;98757.09;;;0.29;100.00
72640;BME280;60683;51.730;8.762;2024-01-15T03:29:17;98759.75;;;0.29;100.00
72640;BME280;60683;51.730;8.762;2024-01-15T03:32:10;98760.56;;;0.29;100.00
72640;BME280;60683;51.730;8.762;2024-01-15T03:35:00;98753.22;;;0.31;100.00
72640;BME280;60683;51.730;8.762;2024-01-15T03:37:50;98753.22;;;0.31;100.00
72640;BME280;60683;51.730;8.762;2024-01-15T03:40:40;98761.38;;;0.30;100.00
72640;BME280;60683;51.730;8.762;2024-01-15T03:43:31;98761.38;;;0.30;100.00
72640;BME280;60683;51.730;8.762;2024-01-15T03:46:21;98756.88;;;0.30;100.00
72640;BME280;60683;51.730;8.762;2024-01-15T03:49:20;98758.53;;;0.31;100.00
72640;BME280;60683;51.730;8.762;2024-01-15T03:52:10;98748.16;;;0.37;100.00
72640;BME280;60683;51.730;8.762;2024-01-15T03:55:00;98749.78;;;0.38;100.00
72640;BME280;60683;51.730;8.762;2024-01-15T03:57:50;98735.75;;;0.37;100.00
72640;BME280;60683;51.730;8.762;2024-01-15T04:00:40;98748.56;;;0.33;100.00
72640;BME280;60683;51.730;8.762;2024-01-15T04:03:29;98744.91;;;0.35;100.00
72640;BME280;60683;51.730;8.762;2024-01-15T04:06:23;98744.28;;;0.32;100.00
72640;BME280;60683;51.730;8.762;2024-01-15T04:09:13;98742.25;;;0.35;100.00
72640;BME280;60683;51.730;8.762;2024-01-15T04:12:03;98747.34;;;0.36;100.00
72640;BME280;60683;51.730;8.762;2024-01-15T04:14:54;98729.66;;;0.37;100.00
72640;BME280;60683;51.730;8.762;2024-01-15T04:17:44;98734.13;;;0.36;100.00
72640;BME280;60683;51.730;8.762;2024-01-15T04:20:34;98731.28;;;0.38;100.00
72640;BME280;60683;51.730;8.762;2024-01-15T04:23:33;98735.56;;;0.39;100.00
72640;BME280;60683;51.730;8.762;2024-01-15T04:26:23;98733.72;;;0.39;100.00
72640;BME280;60683;51.730;8.762;2024-01-15T04:29:13;98724.78;;;0.40;100.00
72640;BME280;60683;51.730;8.762;2024-01-15T04:32:00;98732.91;;;0.39;100.00
72640;BME280;60683;51.730;8.762;2024-01-15T04:34:50;98730.47;;;0.37;100.00
72640;BME280;60683;51.730;8.762;2024-01-15T04:37:40;98733.13;;;0.37;100.00
72640;BME280;60683;51.730;8.762;2024-01-15T04:40:35;98724.56;;;0.35;100.00
72640;BME280;60683;51.730;8.762;2024-01-15T04:43:25;98728.84;;;0.36;100.00
72640;BME280;60683;51.730;8.762;2024-01-15T04:46:26;98713.38;;;0.33;100.00
72640;BME280;60683;51.730;8.762;2024-01-15T04:49:15;98720.91;;;0.29;100.00
72640;BME280;60683;51.730;8.762;2024-01-15T04:52:05;98719.28;;;0.28;100.00
72640;BME280;60683;51.730;8.762;2024-01-15T04:54:56;98713.38;;;0.26;100.00
72640;BME280;60683;51.730;8.762;2024-01-15T04:57:55;98717.25;;;0.24;100.00
72640;BME280;60683;51.730;8.762;2024-01-15T05:00:49;98701.97;;;0.19;100.00
72640;BME280;60683;51.730;8.762;2024-01-15T05:03:44;98714.16;;;0.14;100.00
72640;BME280;60683;51.730;8.762;2024-01-15T05:06:31;98708.69;;;0.15;100.00
72640;BME280;60683;51.730;8.762;2024-01-15T05:09:19;98697.50;;;0.13;100.00
72640;BME280;60683;51.730;8.762;2024-01-15T05:12:09;98700.16;;;0.13;100.00
72640;BME280;60683;51.730;8.762;2024-01-15T05:15:09;98697.69;;;0.05;100.00
72640;BME280;60683;51.730;8.762;2024-01-15T05:17:59;98698.53;;;-0.01;100.00
72640;BME280;60683;51.730;8.762;2024-01-15T05:20:49;98694.25;;;-0.02;100.00
72640;BME280;60683;51.730;8.762;2024-01-15T05:23:38;98692.63;;;-0.03;100.00
72640;BME280;60683;51.730;8.762;2024-01-15T05:26:26;98703.19;;;-0.03;100.00
72640;BME280;60683;51.730;8.762;2024-01-15T05:29:13;98699.94;;;-0.05;100.00
72640;BME280;60683;51.730;8.762;2024-01-15T05:32:12;98694.44;;;-0.04;100.00
72640;BME280;60683;51.730;8.762;2024-01-15T05:35:03;98690.19;;;-0.05;100.00
72640;BME280;60683;51.730;8.762;2024-01-15T05:37:54;98689.34;;;0.02;100.00
72640;BME280;60683;51.730;8.762;2024-01-15T05:40:44;98698.91;;;0.03;100.00
72640;BME280;60683;51.730;8.762;2024-01-15T05:43:32;98698.50;;;0.06;100.00
72640;BME280;60683;51.730;8.762;2024-01-15T05:46:22;98698.09;;;0.02;100.00
72640;BME280;60683;51.730;8.762;2024-01-15T05:49:21;98701.56;;;-0.04;100.00
72640;BME280;60683;51.730;8.762;2024-01-15T05:52:11;98702.34;;;-0.10;100.00
72640;BME280;60683;51.730;8.762;2024-01-15T05:55:02;98699.91;;;-0.12;100.00
72640;BME280;60683;51.730;8.762;2024-01-15T05:57:50;98701.75;;;-0.12;100.00
72640;BME280;60683;51.730;8.762;2024-01-15T06:00:37;98696.06;;;-0.09;100.00
72640;BME280;60683;51.730;8.762;2024-01-15T06:03:24;98692.22;;;-0.07;100.00
72640;BME280;60683;51.730;8.762;2024-01-15T06:06:14;98688.53;;;-0.06;100.00
72640;BME280;60683;51.730;8.762;2024-01-15T06:09:04;98689.38;;;-0.05;100.00
72640;BME280;60683;51.730;8.762;2024-01-15T06:11:52;98689.56;;;-0.07;100.00
72640;BME280;60683;51.730;8.762;2024-01-15T06:14:40;98696.06;;;-0.09;100.00
72640;BME280;60683;51.730;8.762;2024-01-15T06:17:33;98700.31;;;-0.08;100.00
72640;BME280;60683;51.730;8.762;2024-01-15T06:20:21;98697.88;;;-0.10;100.00
72640;BME280;60683;51.730;8.762;2024-01-15T06:23:12;98694.41;;;-0.17;100.00
72640;BME280;60683;51.730;8.762;2024-01-15T06:25:59;98697.06;;;-0.17;100.00
72640;BME280;60683;51.730;8.762;2024-01-15T06:28:51;98693.59;;;-0.17;100.00
72640;BME280;60683;51.730;8.762;2024-01-15T06:31:41;98697.44;;;-0.26;100.00
72640;BME280;60683;51.730;8.762;2024-01-15T06:34:31;98687.25;;;-0.29;100.00
72640;BME280;60683;51.730;8.762;2024-01-15T06:37:19;98693.78;;;-0.25;100.00
72640;BME280;60683;51.730;8.762;2024-01-15T06:40:11;98696.03;;;-0.22;100.00
72640;BME280;60683;51.730;8.762;2024-01-15T06:42:58;98692.38;;;-0.21;100.00
72640;BME280;60683;51.730;8.762;2024-01-15T06:45:46;98691.16;;;-0.19;100.00
72640;BME280;60683;51.730;8.762;2024-01-15T06:48:32;98692.78;;;-0.18;100.00
72640;BME280;60683;51.730;8.762;2024-01-15T06:51:22;98699.50;;;-0.15;100.00
72640;BME280;60683;51.730;8.762;2024-01-15T06:54:10;98688.94;;;-0.09;100.00
72640;BME280;60683;51.730;8.762;2024-01-15T06:56:59;98692.00;;;-0.05;100.00
72640;BME280;60683;51.730;8.762;2024-01-15T06:59:49;98684.28;;;0.00;100.00
72640;BME280;60683;51.730;8.762;2024-01-15T07:02:37;98677.16;;;0.00;100.00
72640;BME280;60683;51.730;8.762;2024-01-15T07:05:24;98682.22;;;0.02;100.00
72640;BME280;60683;51.730;8.762;2024-01-15T07:08:11;98679.59;;;0.02;100.00
72640;BME280;60683;51.730;8.762;2024-01-15T07:11:16;98688.53;;;0.01;100.00
72640;BME280;60683;51.730;8.762;2024-01-15T07:14:10;98693.00;;;0.00;100.00
72640;BME280;60683;51.730;8.762;2024-01-15T07:16:59;98691.00;;;-0.04;100.00
72640;BME280;60683;51.730;8.762;2024-01-15T07:19:46;98693.03;;;-0.06;100.00
72640;BME280;60683;51.730;8.762;2024-01-15T07:22:35;98692.00;;;-0.05;100.00
72640;BME280;60683;51.730;8.762;2024-01-15T07:25:30;98691.00;;;-0.04;100.00
72640;BME280;60683;51.730;8.762;2024-01-15T07:28:20;98686.13;;;-0.01;100.00
72640;BME280;60683;51.730;8.762;2024-01-15T07:31:17;98695.88;;;-0.01;100.00
72640;BME280;60683;51.730;8.762;2024-01-15T07:34:05;98700.94;;;0.00;100.00
72640;BME280;60683;51.730;8.762;2024-01-15T07:36:56;98696.66;;;0.06;100.00
72640;BME280;60683;51.730;8.762;2024-01-15T07:39:47;98691.00;;;0.09;100.00
72640;BME280;60683;51.730;8.762;2024-01-15T07:42:40;98706.84;;;0.09;100.00
72640;BME280;60683;51.730;8.762;2024-01-15T07:45:30;98699.13;;;0.08;100.00
72640;BME280;60683;51.730;8.762;2024-01-15T07:48:23;98711.72;;;0.06;100.00
72640;BME280;60683;51.730;8.762;2024-01-15T07:51:12;98710.72;;;0.00;100.00
72640;BME280;60683;51.730;8.762;2024-01-15T07:54:05;98714.38;;;-0.01;100.00
72640;BME280;60683;51.730;8.762;2024-01-15T07:57:06;98713.56;;;-0.02;100.00
72640;BME280;60683;51.730;8.762;2024-01-15T07:59:56;98713.34;;;0.00;100.00
72640;BME280;60683;51.730;8.762;2024-01-15T08:02:48;98711.50;;;0.00;100.00
72640;BME280;60683;51.730;8.762;2024-01-15T08:05:48;98711.94;;;-0.03;100.00
72640;BME280;60683;51.730;8.762;2024-01-15T08:08:40;98721.06;;;-0.05;100.00
72640;BME280;60683;51.730;8.762;2024-01-15T08:11:32;98721.88;;;-0.05;100.00
72640;BME280;60683;51.730;8.762;2024-01-15T08:14:23;98716.19;;;-0.08;100.00
72640;BME280;60683;51.730;8.762;2024-01-15T08:17:13;98724.69;;;-0.13;100.00
72640;BME280;60683;51.730;8.762;2024-01-15T08:20:01;98732.81;;;-0.14;100.00
72640;BME280;60683;51.730;8.762;2024-01-15T08:22:59;98733.22;;;-0.17;100.00
72640;BME280;60683;51.730;8.762;2024-01-15T08:25:46;98727.09;;;-0.24;100.00
72640;BME280;60683;51.730;8.762;2024-01-15T08:28:34;98726.47;;;-0.26;100.00
72640;BME280;60683;51.730;8.762;2024-01-15T08:31:21;98727.91;;;-0.24;100.00
72640;BME280;60683;51.730;8.762;2024-01-15T08:34:09;98719.16;;;-0.24;100.00
72640;BME280;60683;51.730;8.762;2024-01-15T08:36:59;98722.81;;;-0.25;100.00
72640;BME280;60683;51.730;8.762;2024-01-15T08:39:52;98715.09;;;-0.27;100.00
72640;BME280;60683;51.730;8.762;2024-01-15T08:42:43;98713.06;;;-0.25;100.00
72640;BME280;60683;51.730;8.762;2024-01-15T08:45:36;98714.91;;;-0.25;100.00
72640;BME280;60683;51.730;8.762;2024-01-15T08:48:23;98708.22;;;-0.21;100.00
72640;BME280;60683;51.730;8.762;2024-01-15T08:51:14;98722.63;;;-0.24;100.00
72640;BME280;60683;51.730;8.762;2024-01-15T08:54:05;98710.03;;;-0.22;100.00
72640;BME280;60683;51.730;8.762;2024-01-15T08:56:59;98716.13;;;-0.21;100.00
72640;BME280;60683;51.730;8.762;2024-01-15T08:59:49;98717.97;;;-0.22;100.00
72640;BME280;60683;51.730;8.762;2024-01-15T09:02:42;98715.94;;;-0.20;100.00
72640;BME280;60683;51.730;8.762;2024-01-15T09:05:29;98723.66;;;-0.18;100.00
72640;BME280;60683;51.730;8.762;2024-01-15T09:08:18;98716.34;;;-0.16;100.00
72640;BME280;60683;51.730;8.762;2024-01-15T09:11:05;98721.03;;;-0.12;100.00
72640;BME280;60683;51.730;8.762;2024-01-15T09:14:00;98708.44;;;-0.16;100.00
72640;BME280;60683;51.730;8.762;2024-01-15T09:16:49;98725.09;;;-0.16;100.00
72640;BME280;60683;51.730;8.762;2024-01-15T09:19:37;98722.25;;;-0.14;100.00
72640;BME280;60683;51.730;8.762;2024-01-15T09:22:33;98721.84;;;-0.18;100.00
72640;BME280;60683;51.730;8.762;2024-01-15T09:25:21;98724.47;;;-0.18;100.00
72640;BME280;60683;51.730;8.762;2024-01-15T09:28:09;98718.56;;;-0.20;100.00
72640;BME280;60683;51.730;8.762;2024-01-15T09:31:00;98717.97;;;-0.15;100.00
72640;BME280;60683;51.730;8.762;2024-01-15T09:33:48;98712.31;;;-0.12;100.00
72640;BME280;60683;51.730;8.762;2024-01-15T09:36:42;98717.41;;;-0.04;100.00
72640;BME280;60683;51.730;8.762;2024-01-15T09:39:34;98712.75;;;-0.02;100.00
72640;BME280;60683;51.730;8.762;2024-01-15T09:42:24;98714.56;;;-0.03;100.00
72640;BME280;60683;51.730;8.762;2024-01-15T09:45:15;98706.84;;;-0.04;100.00
72640;BME280;60683;51.730;8.762;2024-01-15T09:48:08;98714.75;;;-0.04;100.00
72640;BME280;60683;51.730;8.762;2024-01-15T09:50:57;98715.78;;;-0.05;100.00
72640;BME280;60683;51.730;8.762;2024-01-15T09:53:48;98723.69;;;-0.05;100.00
72640;BME280;60683;51.730;8.762;2024-01-15T09:56:38;98721.06;;;-0.05;100.00
72640;BME280;60683;51.730;8.762;2024-01-15T09:59:26;98722.06;;;-0.06;100.00
72640;BME280;60683;51.730;8.762;2024-01-15T10:02:15;98720.25;;;-0.06;100.00
72640;BME280;60683;51.730;8.762;2024-01-15T10:05:07;98719.84;;;-0.03;100.00
72640;BME280;60683;51.730;8.762;2024-01-15T10:07:57;98719.03;;;0.04;100.00
72640;BME280;60683;51.730;8.762;2024-01-15T10:10:48;98710.09;;;0.11;100.00
72640;BME280;60683;51.730;8.762;2024-01-15T10:13:39;98721.69;;;0.17;100.00
72640;BME280;60683;51.730;8.762;2024-01-15T10:16:30;98724.75;;;0.20;100.00
72640;BME280;60683;51.730;8.762;2024-01-15T10:19:16;98715.59;;;0.16;100.00
72640;BME280;60683;51.730;8.762;2024-01-15T10:22:08;98713.75;;;0.10;100.00
72640;BME280;60683;51.730;8.762;2024-01-15T10:24:58;98707.06;;;0.14;100.00
72640;BME280;60683;51.730;8.762;2024-01-15T10:28:03;98717.22;;;0.17;100.00
72640;BME280;60683;51.730;8.762;2024-01-15T10:30:55;98710.31;;;0.16;100.00
72640;BME280;60683;51.730;8.762;2024-01-15T10:33:46;98710.94;;;0.18;100.00
72640;BME280;60683;51.730;8.762;2024-01-15T10:36:41;98715.41;;;0.31;100.00
72640;BME280;60683;51.730;8.762;2024-01-15T10:39:30;98711.56;;;0.27;100.00
72640;BME280;60683;51.730;8.762;2024-01-15T10:42:20;98710.13;;;0.24;100.00
72640;BME280;60683;51.730;8.762;2024-01-15T10:45:08;98704.03;;;0.24;100.00
72640;BME280;60683;51.730;8.762;2024-01-15T10:47:58;98710.53;;;0.21;100.00
72640;BME280;60683;51.730;8.762;2024-01-15T10:50:50;98707.88;;;0.21;100.00
72640;BME280;60683;51.730;8.762;2024-01-15T10:53:38;98707.25;;;0.19;100.00
72640;BME280;60683;51.730;8.762;2024-01-15T10:56:42;98712.16;;;0.29;100.00
72640;BME280;60683;51.730;8.762;2024-01-15T10:59:33;98701.19;;;0.25;100.00
72640;BME280;60683;51.730;8.762;2024-01-15T11:02:27;98702.00;;;0.26;100.00
72640;BME280;60683;51.730;8.762;2024-01-15T11:05:18;98700.97;;;0.27;100.00
72640;BME280;60683;51.730;8.762;2024-01-15T11:08:13;98708.91;;;0.27;100.00
72640;BME280;60683;51.730;8.762;2024-01-15T11:11:07;98704.03;;;0.30;100.00
72640;BME280;60683;51.730;8.762;2024-01-15T11:14:02;98706.88;;;0.36;100.00
72640;BME280;60683;51.730;8.762;2024-01-15T11:16:54;98708.53;;;0.50;100.00
72640;BME280;60683;51.730;8.762;2024-01-15T11:19:46;98701.81;;;0.47;100.00
72640;BME280;60683;51.730;8.762;2024-01-15T11:22:49;98695.28;;;0.43;100.00
72640;BME280;60683;51.730;8.762;2024-01-15T11:25:44;98702.81;;;0.40;100.00
72640;BME280;60683;51.730;8.762;2024-01-15T11:28:49;98698.97;;;0.42;100.00
72640;BME280;60683;51.730;8.762;2024-01-15T11:31:59;98697.53;;;0.40;100.00
72640;BME280;60683;51.730;8.762;2024-01-15T11:34:56;98700.38;;;0.38;100.00
72640;BME280;60683;51.730;8.762;2024-01-15T11:37:58;98705.25;;;0.41;100.00
72640;BME280;60683;51.730;8.762;2024-01-15T11:40:50;98697.34;;;0.48;100.00
72640;BME280;60683;51.730;8.762;2024-01-15T11:43:46;98693.47;;;0.50;100.00
72640;BME280;60683;51.730;8.762;2024-01-15T11:46:43;98693.06;;;0.47;100.00
72640;BME280;60683;51.730;8.762;2024-01-15T11:49:59;98691.03;;;0.42;100.00
72640;BME280;60683;51.730;8.762;2024-01-15T11:53:02;98693.06;;;0.40;100.00
72640;BME280;60683;51.730;8.762;2024-01-15T11:55:58;98712.38;;;0.41;100.00
72640;BME280;60683;51.730;8.762;2024-01-15T11:58:49;98707.09;;;0.34;100.00
72640;BME280;60683;51.730;8.762;2024-01-15T12:01:36;98699.75;;;0.29;100.00
72640;BME280;60683;51.730;8.762;2024-01-15T12:04:26;98698.13;;;0.28;100.00
72640;BME280;60683;51.730;8.762;2024-01-15T12:07:23;98704.84;;;0.31;100.00
72640;BME280;60683;51.730;8.762;2024-01-15T12:10:15;98692.84;;;0.28;100.00
72640;BME280;60683;51.730;8.762;2024-01-15T12:13:11;98694.69;;;0.28;100.00
72640;BME280;60683;51.730;8.762;2024-01-15T12:16:02;98704.66;;;0.32;100.00
72640;BME280;60683;51.730;8.762;2024-01-15T12:18:51;98707.69;;;0.29;100.00
72640;BME280;60683;51.730;8.762;2024-01-15T12:21:41;98703.63;;;0.33;100.00
72640;BME280;60683;51.730;8.762;2024-01-15T12:24:36;98703.63;;;0.40;100.00
72640;BME280;60683;51.730;8.762;2024-01-15T12:27:26;98699.16;;;0.47;100.00
72640;BME280;60683;51.730;8.762;2024-01-15T12:30:16;98707.06;;;0.54;100.00
72640;BME280;60683;51.730;8.762;2024-01-15T12:33:06;98700.38;;;0.51;100.00
72640;BME280;60683;51.730;8.762;2024-01-15T12:35:54;98697.50;;;0.59;100.00
72640;BME280;60683;51.730;8.762;2024-01-15T12:38:48;98701.38;;;0.63;100.00
72640;BME280;60683;51.730;8.762;2024-01-15T12:41:43;98704.03;;;0.57;100.00
72640;BME280;60683;51.730;8.762;2024-01-15T12:44:33;98710.16;;;0.51;100.00
72640;BME280;60683;51.730;8.762;2024-01-15T12:47:21;98702.22;;;0.51;100.00
72640;BME280;60683;51.730;8.762;2024-01-15T12:50:10;98707.31;;;0.46;100.00
72640;BME280;60683;51.730;8.762;2024-01-15T12:53:02;98708.09;;;0.40;100.00
72640;BME280;60683;51.730;8.762;2024-01-15T12:55:51;98711.38;;;0.42;100.00
72640;BME280;60683;51.730;8.762;2024-01-15T12:58:48;98715.03;;;0.41;100.00
72640;BME280;60683;51.730;8.762;2024-01-15T13:01:36;98715.84;;;0.41;100.00
72640;BME280;60683;51.730;8.762;2024-01-15T13:04:24;98716.66;;;0.42;100.00
72640;BME280;60683;51.730;8.762;2024-01-15T13:07:14;98705.06;;;0.43;100.00
72640;BME280;60683;51.730;8.762;2024-01-15T13:10:06;98712.59;;;0.46;100.00
72640;BME280;60683;51.730;8.762;2024-01-15T13:13:01;98704.84;;;0.44;100.00
72640;BME280;60683;51.730;8.762;2024-01-15T13:15:56;98708.31;;;0.45;100.00
72640;BME280;60683;51.730;8.762;2024-01-15T13:18:43;98707.28;;;0.39;100.00
72640;BME280;60683;51.730;8.762;2024-01-15T13:21:31;98702.81;;;0.40;100.00
72640;BME280;60683;51.730;8.762;2024-01-15T13:24:18;98704.84;;;0.38;100.00
72640;BME280;60683;51.730;8.762;2024-01-15T13:27:04;98710.13;;;0.38;100.00
72640;BME280;60683;51.730;8.762;2024-01-15T13:29:55;98710.13;;;0.38;100.00
72640;BME280;60683;51.730;8.762;2024-01-15T13:32:50;98710.56;;;0.41;100.00
72640;BME280;60683;51.730;8.762;2024-01-15T13:35:49;98704.44;;;0.41;100.00
72640;BME280;60683;51.730;8.762;2024-01-15T13:38:40;98699.97;;;0.48;100.00
72640;BME280;60683;51.730;8.762;2024-01-15T13:41:28;98700.38;;;0.51;100.00
72640;BME280;60683;51.730;8.762;2024-01-15T13:44:16;98705.25;;;0.48;100.00
72640;BME280;60683;51.730;8.762;2024-01-15T13:47:05;98698.34;;;0.47;100.00
72640;BME280;60683;51.730;8.762;2024-01-15T13:50:01;98702.81;;;0.40;100.00
72640;BME280;60683;51.730;8.762;2024-01-15T13:52:51;98708.09;;;0.40;100.00
72640;BME280;60683;51.730;8.762;2024-01-15T13:55:41;98702.81;;;0.33;100.00
72640;BME280;60683;51.730;8.762;2024-01-15T13:58:31;98698.75;;;0.30;100.00
72640;BME280;60683;51.730;8.762;2024-01-15T14:01:25;98697.13;;;0.29;100.00
72640;BME280;60683;51.730;8.762;2024-01-15T14:04:14;98696.91;;;0.31;100.00
72640;BME280;60683;51.730;8.762;2024-01-15T14:07:08;98697.13;;;0.29;100.00
72640;BME280;60683;51.730;8.762;2024-01-15T14:09:54;98698.53;;;0.25;100.00
72640;BME280;60683;51.730;8.762;2024-01-15T14:12:41;98696.91;;;0.18;100.00
72640;BME280;60683;51.730;8.762;2024-01-15T14:15:31;98691.81;;;0.10;100.00
72640;BME280;60683;51.730;8.762;2024-01-15T14:18:20;98698.53;;;-0.01;100.00
72640;BME280;60683;51.730;8.762;2024-01-15T14:21:10;98695.47;;;-0.05;100.00
72640;BME280;60683;51.730;8.762;2024-01-15T14:24:07;98709.06;;;-0.08;100.00
72640;BME280;60683;51.730;8.762;2024-01-15T14:26:53;98709.88;;;-0.07;100.00
72640;BME280;60683;51.730;8.762;2024-01-15T14:29:44;98716.19;;;-0.08;100.00
72640;BME280;60683;51.730;8.762;2024-01-15T14:32:34;98719.44;;;-0.06;100.00
72640;BME280;60683;51.730;8.762;2024-01-15T14:35:25;98718.63;;;-0.07;100.00
72640;BME280;60683;51.730;8.762;2024-01-15T14:38:14;98718.41;;;-0.05;100.00
72640;BME280;60683;51.730;8.762;2024-01-15T14:41:06;98737.53;;;-0.03;100.00
72640;BME280;60683;51.730;8.762;2024-01-15T14:43:54;98743.44;;;-0.01;100.00
72640;BME280;60683;51.730;8.762;2024-01-15T14:46:44;98733.03;;;0.04;100.00
72640;BME280;60683;51.730;8.762;2024-01-15T14:49:34;98727.75;;;0.04;100.00
72640;BME280;60683;51.730;8.762;2024-01-15T14:52:23;98735.28;;;0.07;100.00
72640;BME280;60683;51.730;8.762;2024-01-15T14:55:13;98732.25;;;0.10;100.00
72640;BME280;60683;51.730;8.762;2024-01-15T14:58:08;98730.84;;;0.14;100.00
72640;BME280;60683;51.730;8.762;2024-01-15T15:01:01;98731.25;;;0.18;100.00
72640;BME280;60683;51.730;8.762;2024-01-15T15:03:51;98723.94;;;0.20;100.00